Date,TemperatureHighF,TemperatureAvgF,TemperatureLowF,DewpointHighF,DewpointAvgF,DewpointLowF,HumidityHigh,HumidityAvg,HumidityLow,PressureMaxIn,PressureMinIn,WindSpeedMaxMPH,WindSpeedAvgMPH,GustSpeedMaxMPH,PrecipitationSumIn
2013-1-1,43,39,31,42,37,27,97,93,84,30.18,29.97,9,4,13,0.02
2013-1-2,36,31,27,27,24,23,92,77,62,30.27,30.17,7,2,12,0.04
2013-1-3,44,35,26,31,28,23,91,75,58,30.40,30.24,7,1,9,0.10
2013-1-4,49,38,28,34,30,26,93,75,49,30.47,30.36,6,1,9,0.02
2013-1-5,47,37,32,35,31,29,89,79,61,30.37,30.24,5,1,8,0.00
2013-1-8,55,54,53,45,42,41,70,66,63,30.16,30.11,5,2,10,0.00
2013-1-9,56,54,51,54,52,46,97,94,71,30.31,30.16,11,4,15,0.44
2013-1-10,68,60,-90,64,58,-90,98,95,86,30.24,29.84,14,8,20,0.11
2013-1-11,68,62,55,62,54,51,94,78,56,30.00,29.88,10,5,19,0.15
2013-1-12,72,39,-90,68,34,-100,98,75,83,29.91,29.69,10,5,18,0.36
2013-1-13,71,55,42,66,53,40,100,93,82,29.87,29.69,11,7,18,1.39
2013-1-14,30,29,28,25,24,24,83,82,81,30.29,30.24,8,5,11,0.00
2013-1-15,32,29,27,30,27,23,95,90,83,30.25,30.05,12,6,18,0.00
2013-1-16,34,32,30,31,30,28,94,91,88,30.16,30.04,5,1,11,0.07
2013-1-17,47,39,33,38,32,28,91,78,66,30.45,30.10,12,3,16,0.03
2013-1-18,55,41,29,33,29,26,91,65,38,30.54,30.32,3,0,11,0.00
2013-1-19,59,48,36,39,35,30,80,63,42,30.32,30.13,9,4,15,0.00
2013-1-20,59,48,40,38,35,29,80,61,41,30.24,30.12,9,3,11,0.00
2013-1-21,43,36,31,29,22,19,71,58,40,30.33,30.14,12,4,14,0.00
2013-1-22,39,33,27,22,19,16,74,57,43,30.41,30.28,7,2,11,0.00
2013-1-23,57,42,30,42,32,20,85,68,51,30.32,29.92,6,1,11,0.00
2013-1-24,46,40,35,42,26,20,86,59,46,30.20,29.96,13,7,0,0.00
2013-1-25,48,40,35,44,34,23,94,80,48,30.01,29.78,9,3,0,0.07
2013-1-26,53,44,34,37,34,32,94,71,47,30.09,30.00,8,3,0,0.00
2013-1-27,65,56,48,55,47,36,81,70,61,30.01,29.85,9,6,0,0.00
2013-1-28,73,64,59,62,58,54,90,80,68,29.90,29.79,12,7,23,0.01
2013-1-29,75,68,60,65,61,-100,96,79,64,29.79,29.19,18,4,29,0.58
2013-1-30,59,13,-90,58,2,-100,97,56,59,29.81,29.29,18,-14,26,0.37
2013-1-31,56,42,32,36,30,18,78,63,44,30.09,29.81,14,6,23,0.00
2013-2-1,39,31,24,18,14,10,64,51,34,30.30,30.07,11,3,23,0.00
2013-2-2,52,40,30,37,30,17,79,67,52,30.07,29.90,8,2,23,0.01
2013-2-3,55,47,40,35,32,27,79,58,39,29.96,29.86,15,5,23,0.00
2013-2-4,59,48,41,45,36,29,90,65,41,29.85,29.66,11,3,23,0.07
2013-2-5,64,52,41,51,46,40,96,81,55,29.80,29.67,7,1,23,0.00
2013-2-6,61,52,43,46,43,40,95,73,55,29.96,29.79,9,3,23,0.00
2013-2-7,69,59,51,56,50,39,94,72,59,29.79,29.62,6,2,23,0.11
2013-2-8,58,45,37,56,40,32,96,82,72,30.07,29.64,14,7,24,0.05
2013-2-9,52,43,33,41,34,30,89,73,58,30.08,29.79,10,4,23,0.00
2013-2-10,61,56,52,58,50,39,96,81,56,29.78,29.49,16,8,27,0.69
2013-2-11,59,52,45,52,36,31,80,55,38,29.95,29.70,8,2,23,0.00
2013-2-12,52,48,43,41,38,35,82,70,55,29.91,29.55,9,4,23,0.01
2013-2-13,46,42,40,42,39,37,94,88,78,29.77,29.53,9,4,23,0.02
2013-2-14,63,51,39,43,38,-100,90,65,43,29.82,29.75,9,-8,23,0.00
2013-2-15,55,48,40,42,34,26,81,61,41,29.95,29.80,11,4,18,0.00
2013-2-16,41,36,31,28,22,19,72,58,45,30.03,29.95,9,3,18,0.00
2013-2-17,56,45,34,34,28,21,61,51,38,30.02,29.81,8,5,19,0.00
2013-2-18,59,52,46,53,44,33,95,76,56,29.82,29.49,21,9,30,0.83
2013-2-19,50,43,36,39,29,20,82,59,41,30.03,29.71,14,5,24,0.00
2013-2-20,39,35,32,26,20,16,73,56,45,30.11,29.94,11,5,16,0.00
2013-2-21,46,39,33,44,32,24,95,79,53,29.94,29.50,11,5,16,0.72
2013-2-22,51,42,37,43,38,32,97,87,68,29.84,29.63,7,3,9,0.00
2013-2-23,52,40,32,34,31,28,87,71,47,29.82,29.72,8,3,11,0.00
2013-2-24,58,46,32,35,32,28,87,62,41,29.86,29.66,10,3,12,0.00
2013-2-25,59,52,43,55,41,29,96,67,49,29.66,29.05,16,9,28,0.54
2013-2-26,55,45,42,54,40,35,94,81,70,29.57,29.05,16,9,28,0.01
2013-2-27,46,43,40,38,34,30,77,72,64,29.74,29.57,10,6,28,0.00
2013-2-28,44,40,37,33,30,28,77,68,58,29.87,29.73,10,4,28,0.00
2013-3-1,39,36,34,31,29,27,81,75,66,29.92,29.84,8,4,28,0.00
2013-3-2,36,33,30,30,26,23,89,76,63,30.01,29.90,9,4,28,0.00
2013-3-3,49,38,25,29,25,22,90,63,38,30.00,29.82,8,1,28,0.00
2013-3-4,70,56,40,52,37,26,68,50,31,29.82,29.50,15,7,28,0.00
2013-3-5,63,50,39,57,40,25,93,69,43,29.93,29.50,17,10,28,0.40
2013-3-6,44,39,35,30,27,24,73,63,54,30.12,29.93,12,5,28,0.00
2013-3-7,53,43,35,34,31,28,79,64,47,30.16,30.03,5,2,28,0.00
2013-3-8,64,50,36,35,32,28,79,52,27,30.14,29.92,8,2,28,0.00
2013-3-9,71,61,52,43,37,29,53,41,31,29.92,29.66,9,4,28,0.00
2013-3-10,66,58,50,58,52,44,97,80,48,29.68,29.48,14,7,28,0.82
2013-3-11,50,34,39,46,5,-100,88,58,59,29.70,-32.77,11,-223,28,0.00
2013-3-12,58,20,46,35,-47,-100,65,20,33,29.97,-32.77,9,-602,28,0.00
2013-3-13,51,47,39,34,29,27,68,51,42,30.16,29.97,11,4,28,0.00
2013-3-14,66,49,34,39,32,27,79,55,32,30.18,29.92,11,3,21,0.00
2013-3-15,78,66,53,56,48,38,65,53,45,29.92,29.63,14,7,25,0.00
2013-3-16,78,68,59,58,54,48,78,62,49,29.66,29.56,13,6,22,0.00
2013-3-17,69,59,51,57,51,46,87,75,61,29.65,29.42,9,3,21,0.00
2013-3-18,70,54,46,61,50,43,95,87,69,29.79,29.41,13,3,24,0.23
2013-3-19,58,49,39,43,33,24,95,60,29,29.95,29.79,9,4,21,0.00
2013-3-20,55,48,39,37,28,15,63,46,30,30.00,29.84,13,5,25,0.00
2013-3-21,47,40,32,33,21,16,91,49,32,29.87,29.70,8,4,21,0.03
2013-3-22,47,42,34,45,40,32,95,93,89,29.75,29.62,8,4,21,0.07
2013-3-23,55,50,46,50,47,44,96,91,82,29.67,29.41,10,4,21,0.28
2013-3-24,51,46,38,50,41,28,97,84,66,29.72,29.29,20,9,34,0.06
2013-3-25,41,37,34,28,26,23,70,63,55,30.01,29.72,15,10,27,0.00
2013-3-26,49,41,33,29,27,24,73,59,44,30.11,30.00,10,4,21,0.00
2013-3-27,59,37,32,34,9,-100,82,51,38,30.17,30.04,5,-167,18,0.00
2013-3-28,71,55,39,42,37,32,81,54,34,30.10,29.96,7,2,18,0.00
2013-3-29,65,55,52,54,46,38,95,74,40,30.01,29.90,12,2,18,0.15
2013-3-30,58,54,51,57,53,50,97,96,93,29.94,29.68,7,2,18,0.35
2013-3-31,62,11,-90,59,6,-100,98,67,77,29.75,29.62,9,2,18,0.01
2013-4-1,69,56,46,51,47,41,97,72,46,29.88,29.71,12,4,18,0.02
2013-4-2,54,46,41,41,34,30,92,64,47,30.01,29.85,12,7,19,0.19
2013-4-3,51,46,41,38,32,27,81,58,44,29.98,29.87,11,6,18,0.02
2013-4-4,50,45,41,45,41,31,96,88,48,29.87,29.73,7,4,18,0.11
2013-4-5,70,50,-90,48,38,-90,98,71,35,29.93,29.79,8,1,18,0.01
2013-4-6,76,62,46,47,44,40,87,56,29,29.85,29.66,12,4,18,0.01
2013-4-7,71,65,60,58,54,46,78,67,57,29.78,29.64,9,4,18,0.00
2013-4-8,73,35,63,61,-16,-100,83,40,65,29.73,-32.77,8,-466,12,0.00
2013-4-9,-200,0,200,-100,-100,-100,0,0,100,0.00,-32.77,0,-999,8,0.00
2013-4-10,74,21,71,67,-52,-100,86,24,77,29.44,-32.77,7,-709,10,0.17
2013-4-11,71,52,45,67,50,42,97,95,82,29.57,29.43,10,3,16,0.79
2013-4-12,69,56,42,48,44,40,96,69,41,29.75,29.57,12,2,19,0.79
2013-4-13,75,60,46,48,43,39,77,55,31,29.85,29.66,7,2,13,0.00
2013-4-14,70,63,56,58,52,47,82,67,56,29.66,29.48,16,6,21,0.00
2013-4-15,82,69,57,64,60,54,94,75,53,29.67,29.56,11,5,16,0.00
2013-4-16,86,77,69,73,69,64,90,77,61,29.78,29.65,10,4,16,0.00
2013-4-17,88,78,70,72,69,68,93,75,53,29.81,29.58,10,4,19,0.00
2013-4-18,79,70,46,69,62,44,96,79,57,29.61,29.36,16,8,27,1.57
2013-4-19,57,49,44,44,36,32,95,62,44,29.89,29.61,11,6,20,0.04
2013-4-20,70,56,41,43,40,36,89,58,33,30.02,29.89,7,2,13,0.04
2013-4-21,69,60,49,42,39,38,67,48,34,30.09,29.92,9,3,13,0.00
2013-4-22,77,64,49,52,47,40,75,56,40,29.95,29.76,10,3,14,0.00
2013-4-23,76,68,60,63,59,51,92,75,61,29.79,29.64,10,5,18,0.16
2013-4-24,66,62,53,64,60,51,96,94,93,29.66,29.62,9,4,13,0.38
2013-4-27,74,70,60,67,64,58,94,84,77,29.80,29.62,10,4,14,0.17
2013-4-28,67,61,54,58,55,52,93,82,65,29.73,29.68,8,2,12,0.01
2013-4-29,82,66,51,59,55,50,96,70,41,29.76,29.62,6,1,11,0.01
2013-4-30,83,72,59,62,56,53,82,59,40,29.70,29.62,9,3,14,0.00
2013-5-1,79,70,65,68,62,56,96,76,62,29.79,29.67,13,3,18,0.09
2013-5-2,69,65,63,63,62,59,97,89,76,29.85,29.75,7,1,11,0.01
2013-5-3,64,48,41,64,46,37,97,95,84,29.76,29.65,10,4,15,0.02
2013-5-4,60,47,37,46,41,35,95,82,53,29.73,29.64,15,2,19,0.01
2013-5-5,50,18,45,48,-44,-100,96,37,93,29.68,-32.77,3,-613,11,0.01
2013-5-6,-200,0,200,-100,-100,-100,0,0,100,0.00,-32.77,0,-999,11,0.00
2013-5-7,-200,0,200,-100,-100,-100,0,0,100,0.00,-32.77,0,-999,11,0.00
2013-5-8,85,36,67,61,-25,-100,78,26,42,29.82,-32.77,8,-532,14,0.00
2013-5-9,84,73,63,65,62,58,85,70,50,29.81,29.69,11,3,21,0.01
2013-5-10,80,52,-90,70,48,-100,98,83,62,29.71,29.61,8,2,13,0.01
2013-5-11,74,67,60,65,58,54,97,75,52,29.82,29.69,8,2,13,0.01
2013-5-12,69,61,53,56,40,34,75,49,32,29.98,29.82,9,4,16,0.00
2013-5-13,80,66,49,54,48,42,82,56,33,30.02,29.87,7,1,11,0.00
2013-5-14,89,76,64,62,57,52,69,52,39,29.87,29.75,11,6,23,0.00
2013-5-15,76,73,71,57,56,55,61,55,49,29.79,29.78,9,6,15,0.00
2013-5-18,79,78,78,75,75,74,90,89,86,29.66,29.64,5,0,7,0.00
2013-5-19,90,81,74,74,70,66,90,71,50,29.70,29.60,9,4,15,0.00
2013-5-20,89,48,75,73,3,-100,88,46,58,29.68,-32.77,9,-393,23,0.00
2013-5-21,-200,0,200,-100,-100,-100,0,0,100,0.00,-32.77,0,-999,0,0.00
2013-5-22,75,68,71,64,55,-100,79,71,68,29.64,-32.77,2,-54,20,0.00
2013-5-23,84,75,64,65,63,58,90,67,50,29.86,29.64,9,3,20,0.00
2013-5-24,75,67,57,59,53,48,81,62,41,30.04,29.86,13,7,20,0.00
2013-5-25,80,69,56,59,54,50,82,60,38,30.05,29.89,10,1,20,0.00
2013-5-26,69,9,63,58,-79,-100,81,10,68,29.90,-32.77,0,-866,20,0.00
2013-5-27,-200,0,200,-100,-100,-100,0,0,100,0.00,-32.77,0,-999,20,0.00
2013-5-28,-200,0,200,-100,-100,-100,0,0,100,0.00,-32.77,0,-999,20,0.00
2013-5-29,-200,0,200,-100,-100,-100,0,0,100,0.00,-32.77,0,-999,20,0.00
2013-5-30,86,55,74,74,20,-100,85,53,62,29.76,-32.77,12,-295,20,0.00
2013-5-31,87,77,65,75,72,64,97,84,66,29.75,29.57,12,4,20,0.00
2013-6-1,84,73,66,74,70,64,97,91,69,29.72,29.55,15,3,24,0.00
2013-6-2,82,72,66,71,66,61,98,82,61,29.72,29.65,8,2,20,0.00
2013-6-3,81,71,62,65,62,60,95,75,54,29.77,29.66,9,2,20,0.00
2013-6-4,88,76,64,66,63,60,86,65,46,29.75,29.65,6,1,20,0.00
2013-6-5,91,78,71,77,70,64,94,77,56,29.69,29.53,11,1,20,0.00
2013-6-6,84,76,69,70,68,66,95,77,59,29.58,29.50,6,2,20,0.00
2013-6-7,84,75,69,67,61,56,79,64,43,29.63,29.52,8,3,20,0.00
2013-6-8,89,76,62,63,59,56,90,60,36,29.73,29.62,6,1,20,0.00
2013-6-9,92,77,68,72,68,60,93,75,48,29.72,29.55,11,2,21,0.00
2013-6-10,95,82,69,73,70,67,96,70,41,29.66,29.60,11,4,20,0.00
2013-6-11,99,88,76,76,73,70,83,63,44,29.75,29.65,9,3,20,0.00
2013-6-12,86,82,80,75,74,73,80,75,70,29.72,29.66,7,3,20,0.00
2013-6-13,96,86,76,77,72,66,82,65,46,29.69,29.62,11,6,19,0.00
2013-6-14,76,76,76,67,67,66,73,72,72,29.69,29.68,0,0,15,0.00
2013-6-16,78,78,78,70,69,68,78,75,73,29.69,29.69,1,0,2,0.00
2013-6-17,84,75,-90,75,70,-90,98,86,66,29.73,29.58,12,2,18,0.20
2013-6-18,85,10,-90,71,2,-100,98,50,62,29.76,29.59,8,1,9,0.03
2013-6-19,93,56,70,72,18,-100,95,50,46,29.77,-32.77,11,-300,13,0.00
2013-6-20,93,36,79,70,-30,-100,74,24,46,29.83,-32.77,5,-585,10,0.00
2013-6-21,93,84,75,73,71,69,82,66,47,29.89,29.80,8,2,12,0.00
2013-6-22,92,83,75,72,70,69,82,66,50,29.87,29.74,8,2,12,0.00
2013-6-23,93,84,75,72,69,67,77,63,47,29.83,29.73,7,2,11,0.00
2013-6-24,97,85,76,76,73,70,85,68,49,29.86,29.73,8,2,14,0.00
2013-6-25,95,86,77,76,73,69,88,67,44,29.81,29.66,9,4,19,0.00
2013-6-26,96,87,79,75,72,69,82,64,43,29.72,29.58,11,5,21,0.00
2013-6-27,100,87,76,80,76,72,90,71,50,29.65,29.54,14,3,21,0.07
2013-6-28,91,81,72,76,72,70,97,77,52,29.64,29.44,18,2,24,0.16
2013-6-29,91,82,72,70,65,61,82,58,39,29.51,29.42,9,3,16,0.00
2013-6-30,81,74,69,67,64,62,83,73,61,29.57,29.45,9,3,14,0.00
2013-7-1,80,73,67,68,65,62,94,78,62,29.68,29.56,8,3,18,0.00
2013-7-2,85,75,65,66,63,61,89,68,48,29.77,29.66,7,2,14,0.00
2013-7-3,85,75,65,66,64,62,89,71,51,29.84,29.75,5,1,14,0.00
2013-7-4,87,78,68,71,68,64,87,72,52,29.78,29.68,7,2,14,0.00
2013-7-5,87,78,70,72,70,68,94,79,57,29.80,29.71,9,2,14,0.00
2013-7-12,83,79,75,65,63,62,64,59,54,29.74,29.70,6,2,12,0.00
2013-7-13,87,75,68,64,56,-100,79,58,45,29.77,29.68,11,-33,13,0.00
2013-7-14,88,78,70,72,69,64,88,73,56,29.81,29.70,11,4,16,0.00
2013-7-15,89,80,74,77,73,71,93,81,60,29.92,29.80,11,3,15,0.07
2013-7-16,92,83,75,75,73,71,91,73,53,29.99,29.91,7,2,11,0.09
2013-7-17,95,86,76,75,73,71,87,67,47,30.03,29.88,7,1,10,0.00
2013-7-18,92,58,-90,78,50,-100,97,71,58,29.92,29.76,13,2,20,0.00
2013-7-19,91,26,-90,75,15,-100,96,46,57,29.87,29.72,7,1,11,0.01
2013-7-20,95,85,76,77,74,72,87,71,53,29.73,29.57,8,3,13,0.00
2013-7-21,95,85,76,77,73,71,84,69,48,29.70,29.60,10,3,16,0.01
2013-7-22,89,80,72,79,74,71,98,83,63,29.68,29.59,10,4,18,0.01
2013-7-23,80,78,77,74,73,73,88,85,81,29.65,29.59,8,2,9,0.00
2013-7-27,85,80,76,70,69,68,76,69,57,29.69,29.63,7,1,11,0.00
2013-7-28,81,75,69,68,64,61,81,69,55,29.80,29.69,9,3,13,0.01
2013-7-29,88,83,78,71,70,68,74,65,52,29.84,29.80,7,2,9,0.00
2013-7-30,86,80,76,75,71,67,84,73,60,29.85,29.74,7,2,11,0.00
2013-7-31,94,82,75,78,75,72,96,81,60,29.79,29.65,8,2,11,0.01
2013-8-1,87,76,75,76,62,-100,95,73,59,29.78,-32.77,8,-54,13,0.00
2013-8-2,92,42,79,72,-16,-100,75,30,48,29.77,-32.77,7,-507,10,0.00
2013-8-3,82,79,75,75,72,70,93,81,73,29.80,29.66,11,2,18,0.00
2013-8-4,90,80,72,75,73,70,95,79,60,29.85,29.77,8,2,12,0.00
2013-8-5,82,76,72,73,70,68,89,81,72,29.79,29.76,7,1,10,0.00
2013-8-11,84,81,80,77,76,74,90,84,74,29.80,29.78,5,1,10,0.02
2013-8-12,95,82,73,79,75,71,96,81,60,29.80,29.66,11,3,22,0.00
2013-8-13,85,78,72,75,72,68,96,84,67,29.75,29.66,7,2,12,0.00
2013-8-14,78,73,67,68,62,56,84,69,50,29.82,29.71,10,6,18,0.01
2013-8-15,80,70,60,62,58,55,83,68,47,29.82,29.74,8,3,14,0.00
2013-8-16,81,72,64,71,65,59,90,79,62,29.79,29.73,9,2,13,0.00
2013-8-17,81,73,68,70,68,66,93,83,66,29.82,29.75,9,2,12,0.00
2013-8-18,83,74,67,70,68,65,97,84,65,29.87,29.77,7,1,12,0.01
2013-8-19,87,77,68,71,69,66,96,77,57,29.84,29.74,8,2,12,0.00
2013-8-20,89,81,71,74,72,69,93,75,57,29.83,29.75,6,1,12,0.00
2013-8-21,97,83,72,76,73,68,95,72,44,29.87,29.77,6,1,12,0.00
2013-8-22,94,83,76,78,75,72,95,78,53,29.86,29.74,8,1,14,0.05
2013-8-23,91,83,73,76,73,70,94,73,52,29.81,29.72,7,2,12,0.04
2013-8-24,92,84,75,76,74,72,91,72,55,29.87,29.77,8,2,14,0.00
2013-8-25,88,81,76,75,73,72,89,79,62,29.99,29.87,8,2,12,0.00
2013-8-26,92,82,73,72,70,67,89,69,51,29.99,29.85,7,1,12,0.00
2013-8-27,93,82,71,71,68,65,83,64,48,29.89,29.77,7,1,12,0.00
2013-8-28,95,83,72,71,68,65,81,63,46,29.83,29.74,7,2,12,0.00
2013-8-29,96,85,74,74,71,68,82,65,47,29.81,29.70,6,1,12,0.00
2013-8-30,98,87,76,74,73,71,88,64,44,29.75,29.62,6,1,12,0.00
2013-8-31,100,88,78,76,73,70,77,62,44,29.65,29.55,9,2,12,0.00
2013-9-1,98,85,79,76,73,71,78,68,49,29.64,29.53,16,3,22,0.00
2013-9-2,93,84,78,78,75,72,84,74,56,29.67,29.55,9,2,15,0.00
2013-9-3,88,80,74,75,66,-100,87,65,43,29.76,29.64,8,-2,13,0.00
2013-9-4,86,78,69,68,65,63,83,67,51,29.86,29.75,8,2,12,0.00
2013-9-5,89,78,68,69,66,63,85,67,49,29.89,29.82,7,1,12,0.00
2013-9-6,92,80,70,69,67,65,84,66,47,29.88,29.76,5,1,12,0.00
2013-9-7,97,83,70,71,68,66,87,62,39,29.81,29.68,6,1,12,0.00
2013-9-8,99,87,74,74,70,68,82,60,40,29.72,29.61,4,1,12,0.00
2013-9-9,96,86,78,74,72,69,75,62,48,29.76,29.66,6,1,12,0.00
2013-9-10,98,85,78,74,72,70,79,66,43,29.86,29.75,8,1,20,0.00
2013-9-11,91,82,76,75,72,71,88,74,56,29.89,29.78,6,0,20,0.00
2013-9-12,98,84,76,75,71,69,80,67,43,29.80,29.66,7,2,16,0.00
2013-9-13,82,75,67,72,61,56,84,64,45,29.76,29.68,9,4,16,0.00
2013-9-14,75,68,59,56,53,50,82,62,44,29.84,29.75,9,3,12,0.00
2013-9-15,88,71,56,60,53,-100,88,58,33,29.84,29.77,6,-21,9,0.00
2013-9-16,88,36,72,69,-26,-100,83,27,38,29.87,-32.77,9,-549,16,0.00
2013-9-17,92,79,68,69,67,64,91,69,44,29.89,29.76,6,2,10,0.00
2013-9-18,90,80,72,74,70,67,89,74,56,29.83,29.73,8,4,12,0.00
2013-9-19,92,82,72,73,70,68,89,69,49,29.83,29.67,6,2,10,0.00
2013-9-20,80,25,-90,72,5,-100,98,58,67,29.71,29.57,5,-148,10,0.20
2013-9-21,75,53,-90,68,43,-100,98,68,49,29.70,29.58,12,4,19,0.07
2013-9-22,76,67,58,57,55,52,85,67,48,29.70,29.60,11,3,15,0.01
2013-9-23,82,71,58,63,59,54,87,68,48,29.70,29.60,9,2,13,0.01
2013-9-24,79,72,68,73,68,62,96,87,76,29.64,29.53,7,2,12,0.01
2013-9-25,85,76,70,72,69,65,97,80,54,29.58,29.51,6,2,11,0.01
2013-9-26,86,76,67,71,68,66,95,77,56,29.72,29.57,7,2,11,0.00
2013-9-27,86,76,66,69,66,63,93,72,50,29.82,29.72,7,1,9,0.00
2013-9-28,84,75,67,65,62,60,85,66,49,29.86,29.74,8,2,13,0.00
2013-9-29,72,68,65,66,63,61,95,86,68,29.78,29.69,7,1,9,0.00
2013-9-30,75,26,-90,70,22,-100,93,74,83,29.74,29.67,8,2,12,0.01
2013-10-1,86,75,68,73,69,65,92,83,62,29.81,29.72,7,2,13,0.00
2013-10-2,88,77,72,71,69,66,89,76,51,29.84,29.75,7,2,11,0.00
2013-10-3,88,78,68,73,70,66,91,76,59,29.78,29.68,8,3,13,0.00
2013-10-4,85,77,70,73,71,67,92,84,66,29.79,29.70,9,3,12,0.00
2013-10-5,88,80,73,74,72,70,92,78,58,29.76,29.61,9,4,15,0.00
2013-10-6,74,63,55,68,53,48,92,73,45,29.74,29.62,10,2,16,0.00
2013-10-7,68,59,51,53,50,47,88,72,56,29.86,29.70,9,2,13,0.00
2013-10-8,72,62,52,55,52,49,90,70,49,29.90,29.80,11,3,16,0.00
2013-10-9,78,67,57,66,60,52,92,78,63,29.88,29.80,8,2,10,0.00
2013-10-10,80,69,62,67,62,59,92,78,54,29.89,29.75,5,0,8,0.00
2013-10-11,84,71,60,66,61,57,92,75,49,29.79,29.68,7,1,11,0.00
2013-10-12,76,68,62,69,64,60,92,88,75,29.87,29.72,11,0,11,0.00
2013-10-13,78,70,64,66,62,55,92,76,62,30.00,29.87,10,4,14,0.00
2013-10-14,81,70,59,65,60,51,82,69,54,29.97,29.79,6,2,10,0.00
2013-10-15,74,70,68,66,64,63,91,83,75,29.80,29.68,8,3,13,0.00
2013-10-16,68,61,56,63,57,53,92,88,82,29.78,29.68,8,2,12,0.01
2013-10-17,67,59,52,57,53,49,92,82,57,29.78,29.70,7,1,10,0.00
2013-10-18,73,60,48,55,51,45,94,74,48,29.82,29.69,5,0,9,0.00
2013-10-19,62,54,45,55,48,43,92,81,60,29.83,29.67,8,2,13,0.00
2013-10-20,69,54,42,47,44,40,92,71,41,29.87,29.74,6,1,10,0.00
2013-10-21,75,60,46,55,49,44,91,71,45,29.82,29.72,9,2,14,0.00
2013-10-22,69,59,52,54,48,41,92,69,39,29.82,29.64,8,2,14,0.00
2013-10-23,60,52,47,49,42,38,87,69,48,29.91,29.69,9,2,16,0.00
2013-10-24,64,53,46,48,43,36,88,70,51,30.12,29.85,9,2,21,0.00
2013-10-25,54,46,38,37,33,29,79,63,41,30.27,30.08,8,2,13,0.00
2013-10-26,67,53,40,51,42,34,82,66,45,30.08,29.84,8,2,14,0.00
2013-10-27,68,59,54,58,55,51,92,85,70,29.84,29.75,7,0,10,0.00
2013-10-28,71,61,55,59,55,51,92,83,65,29.96,29.80,4,0,8,0.00
2013-10-29,75,66,56,67,61,54,92,85,73,29.98,29.84,8,2,12,0.00
2013-10-30,75,70,64,67,64,61,91,83,73,29.92,29.69,8,3,13,0.00
2013-10-31,71,68,62,68,64,53,93,88,63,29.69,29.31,13,8,34,0.00
2013-11-1,75,62,51,56,52,48,92,71,41,29.64,29.50,10,2,13,0.00
2013-11-2,61,54,46,53,45,41,91,73,55,29.96,29.64,11,4,19,0.00
2013-11-3,61,50,40,44,41,37,92,74,49,30.06,29.90,8,1,12,0.00
2013-11-4,66,56,47,49,45,40,78,67,50,30.03,29.92,8,2,14,0.00
2013-11-5,71,62,56,56,51,46,72,65,56,30.03,29.88,11,7,15,0.00
2013-11-6,62,58,46,59,52,42,92,82,67,30.00,29.78,12,5,19,0.00
2013-11-7,56,47,41,42,38,35,92,73,49,30.16,30.00,10,3,16,0.00
2013-11-8,65,50,37,43,39,35,92,69,37,30.14,29.96,6,1,15,0.00
2013-11-9,63,53,44,46,43,39,82,69,51,30.04,29.93,8,1,15,0.00
2013-11-10,67,55,45,50,45,41,92,71,44,30.10,30.00,10,2,15,0.00
2013-11-11,73,57,43,50,44,38,86,65,39,30.05,29.90,6,1,15,0.00
2013-11-12,56,42,33,50,32,24,89,69,47,30.42,29.96,14,8,25,0.00
2013-11-13,50,37,29,28,25,22,83,63,37,30.47,30.20,6,2,15,0.11
2013-11-14,58,44,29,30,27,25,92,55,30,30.20,29.90,8,2,15,0.07
2013-11-15,59,52,45,53,45,30,92,79,51,29.90,29.76,8,2,15,0.05
2013-11-16,68,61,52,65,58,50,93,91,88,29.79,29.59,10,5,19,0.00
2013-11-17,77,70,64,72,64,40,93,82,40,29.73,29.44,12,6,22,0.48
2013-11-18,64,56,48,43,37,32,66,49,37,30.00,29.73,8,3,16,0.00
2013-11-19,52,47,40,32,30,25,70,53,36,30.06,29.92,11,4,15,0.00
2013-11-20,63,50,36,43,37,31,80,62,43,29.93,29.81,8,2,15,0.00
2013-11-21,67,59,53,60,53,43,92,80,67,29.93,29.84,11,5,19,0.51
2013-11-22,60,53,44,57,50,40,93,88,84,30.14,29.88,11,5,20,0.50
2013-11-23,46,41,31,41,32,18,91,71,42,30.33,30.11,18,8,24,0.00
2013-11-24,36,31,24,20,18,16,72,60,48,30.41,30.19,14,7,20,0.00
2013-11-25,36,35,33,34,28,19,92,76,53,30.19,29.89,5,2,15,0.15
2013-11-26,41,37,35,37,33,25,93,86,64,29.90,29.71,14,5,21,0.03
2013-11-27,35,30,26,26,19,16,81,64,52,30.16,29.90,11,5,23,0.00
2013-11-28,48,35,24,28,23,18,81,64,40,30.24,30.14,7,2,15,0.00
2013-11-29,58,42,29,35,31,26,92,69,42,30.31,30.18,4,0,15,0.00
2013-11-30,58,46,31,36,33,28,91,62,38,30.18,29.95,9,2,15,0.00
2013-12-1,60,54,46,47,41,34,69,62,52,29.96,29.67,8,2,15,0.00
2013-12-2,60,56,50,55,50,43,92,81,69,29.67,29.46,4,0,15,0.00
2013-12-3,51,-36,-90,49,-52,-100,91,29,85,29.51,29.43,6,2,15,0.00
2013-12-4,76,48,-90,65,42,-100,93,73,68,29.59,29.48,12,5,25,0.00
2013-12-5,70,49,34,67,45,32,93,88,77,29.90,29.56,11,6,16,0.43
2013-12-6,34,31,26,33,29,24,93,92,91,30.21,29.82,11,2,14,0.46
2013-12-7,29,26,23,27,23,19,92,88,85,30.34,30.10,0,0,7,0.00
2013-12-8,35,32,29,33,30,27,93,93,92,30.12,29.83,6,1,9,0.01
2013-12-9,34,33,32,30,29,28,93,87,82,30.07,29.92,10,5,12,0.00
2013-12-10,40,32,26,30,26,22,91,78,62,30.21,29.98,7,2,13,0.04
2013-12-11,46,35,26,36,29,24,93,80,57,30.34,30.15,7,2,10,0.01
2013-12-12,46,33,24,26,21,15,83,64,34,30.39,30.15,8,2,9,0.00
2013-12-13,49,38,28,38,28,23,92,69,41,30.15,29.67,10,3,11,0.30
2013-12-14,45,41,36,42,38,31,93,88,81,29.90,29.54,11,6,16,0.77
2013-12-15,41,36,34,33,30,29,96,81,71,30.05,29.90,8,4,13,0.00
2013-12-16,60,47,34,42,37,31,91,71,50,29.97,29.86,12,6,16,0.00
2013-12-17,60,49,38,44,39,35,87,68,53,30.05,29.90,10,4,13,0.00
2013-12-18,61,48,37,40,36,30,89,64,42,30.10,29.85,9,4,15,0.00
2013-12-19,62,56,49,55,48,40,79,74,63,29.89,29.68,9,6,18,0.00
2013-12-20,69,65,61,65,60,55,93,86,78,29.70,29.54,11,8,18,0.31
2013-12-21,75,65,52,67,61,48,93,86,75,29.53,29.19,17,8,23,1.17
2013-12-22,54,17,52,49,-51,-100,87,28,85,29.61,-32.77,8,-670,9,0.38
2013-12-23,37,17,29,28,-37,-100,87,38,67,30.26,-32.77,6,-499,10,0.01
2013-12-24,35,31,26,28,20,15,88,67,49,30.38,30.18,9,3,11,0.01
2013-12-25,51,38,26,33,26,18,81,63,46,30.18,30.06,6,2,8,0.06
2013-12-26,48,39,31,34,30,28,90,71,48,30.20,30.10,8,2,14,0.00
2013-12-27,58,42,30,35,31,27,90,68,39,30.22,30.11,3,0,7,0.00
2013-12-28,49,43,37,42,36,32,92,78,61,30.11,29.72,6,1,7,0.01
2013-12-29,55,45,35,45,39,29,93,81,66,29.96,29.71,9,4,18,0.10
2013-12-30,35,32,29,30,26,24,83,78,75,30.12,29.95,9,4,15,0.00
2013-12-31,50,36,27,33,28,24,91,75,48,30.23,30.07,7,1,10,0.00
2014-1-1,54,43,30,45,34,27,90,74,51,30.07,29.69,8,3,12,0.01
2014-1-2,51,36,25,48,29,16,92,76,61,30.22,29.65,16,7,22,0.10